sensor_id;sensor_type;location;lat;lon;timestamp;temperature;humidity
73572;DHT22;61854;48.510;-2.770;2023-02-02T00:01:48;9.00;83.10
73572;DHT22;61854;48.510;-2.770;2023-02-02T00:04:18;9.00;83.10
73572;DHT22;61854;48.510;-2.770;2023-02-02T00:06:44;9.00;83.20
73572;DHT22;61854;48.510;-2.770;2023-02-02T00:09:11;9.00;83.10
73572;DHT22;61854;48.510;-2.770;2023-02-02T00:11:36;8.90;82.80
73572;DHT22;61854;48.510;-2.770;2023-02-02T00:14:02;9.00;82.50
73572;DHT22;61854;48.510;-2.770;2023-02-02T00:18:57;9.00;82.40
73572;DHT22;61854;48.510;-2.770;2023-02-02T00:21:23;9.00;82.50
73572;DHT22;61854;48.510;-2.770;2023-02-02T00:23:49;9.00;82.40
73572;DHT22;61854;48.510;-2.770;2023-02-02T00:26:14;9.00;82.50
73572;DHT22;61854;48.510;-2.770;2023-02-02T00:28:40;9.00;82.80
73572;DHT22;61854;48.510;-2.770;2023-02-02T00:31:05;9.00;82.70
73572;DHT22;61854;48.510;-2.770;2023-02-02T00:33:31;8.90;82.80
73572;DHT22;61854;48.510;-2.770;2023-02-02T00:35:56;8.90;82.80
73572;DHT22;61854;48.510;-2.770;2023-02-02T00:38:22;8.90;83.10
73572;DHT22;61854;48.510;-2.770;2023-02-02T00:40:47;8.90;83.00
73572;DHT22;61854;48.510;-2.770;2023-02-02T00:43:13;8.90;82.90
73572;DHT22;61854;48.510;-2.770;2023-02-02T00:45:38;8.90;83.00
73572;DHT22;61854;48.510;-2.770;2023-02-02T00:48:04;8.90;83.30
73572;DHT22;61854;48.510;-2.770;2023-02-02T00:50:30;8.90;83.30
73572;DHT22;61854;48.510;-2.770;2023-02-02T00:52:55;8.90;83.70
73572;DHT22;61854;48.510;-2.770;2023-02-02T00:55:23;8.90;83.40
73572;DHT22;61854;48.510;-2.770;2023-02-02T00:57:49;8.90;83.70
73572;DHT22;61854;48.510;-2.770;2023-02-02T01:00:15;8.90;83.50
73572;DHT22;61854;48.510;-2.770;2023-02-02T01:02:41;8.90;83.70
73572;DHT22;61854;48.510;-2.770;2023-02-02T01:05:06;8.90;83.40
73572;DHT22;61854;48.510;-2.770;2023-02-02T01:07:32;8.90;83.50
73572;DHT22;61854;48.510;-2.770;2023-02-02T01:09:58;8.90;83.50
73572;DHT22;61854;48.510;-2.770;2023-02-02T01:12:23;8.90;83.60
73572;DHT22;61854;48.510;-2.770;2023-02-02T01:14:49;8.90;83.60
73572;DHT22;61854;48.510;-2.770;2023-02-02T01:17:14;8.90;83.70
73572;DHT22;61854;48.510;-2.770;2023-02-02T01:19:40;8.90;83.80
73572;DHT22;61854;48.510;-2.770;2023-02-02T01:22:06;8.90;83.80
73572;DHT22;61854;48.510;-2.770;2023-02-02T01:24:31;8.90;83.40
73572;DHT22;61854;48.510;-2.770;2023-02-02T01:26:57;8.90;83.60
73572;DHT22;61854;48.510;-2.770;2023-02-02T01:29:22;8.90;84.80
73572;DHT22;61854;48.510;-2.770;2023-02-02T01:31:48;8.90;83.60
73572;DHT22;61854;48.510;-2.770;2023-02-02T01:34:14;8.90;83.50
73572;DHT22;61854;48.510;-2.770;2023-02-02T01:36:39;8.90;83.60
73572;DHT22;61854;48.510;-2.770;2023-02-02T01:39:05;8.90;83.50
73572;DHT22;61854;48.510;-2.770;2023-02-02T01:41:30;8.90;83.40
73572;DHT22;61854;48.510;-2.770;2023-02-02T01:43:57;8.90;83.40
73572;DHT22;61854;48.510;-2.770;2023-02-02T01:46:30;8.90;83.50
73572;DHT22;61854;48.510;-2.770;2023-02-02T01:51:35;8.90;83.30
73572;DHT22;61854;48.510;-2.770;2023-02-02T01:54:02;8.90;83.20
73572;DHT22;61854;48.510;-2.770;2023-02-02T01:56:32;8.90;82.80
73572;DHT22;61854;48.510;-2.770;2023-02-02T01:58:58;8.90;83.30
73572;DHT22;61854;48.510;-2.770;2023-02-02T02:01:25;8.90;83.00
73572;DHT22;61854;48.510;-2.770;2023-02-02T02:03:50;8.90;82.80
73572;DHT22;61854;48.510;-2.770;2023-02-02T02:06:16;8.90;83.10
73572;DHT22;61854;48.510;-2.770;2023-02-02T02:08:53;8.90;83.40
73572;DHT22;61854;48.510;-2.770;2023-02-02T02:11:20;8.90;82.90
73572;DHT22;61854;48.510;-2.770;2023-02-02T02:13:45;8.90;82.80
73572;DHT22;61854;48.510;-2.770;2023-02-02T02:19:33;9.00;82.90
73572;DHT22;61854;48.510;-2.770;2023-02-02T02:22:08;8.90;83.00
73572;DHT22;61854;48.510;-2.770;2023-02-02T02:30:38;8.90;82.80
73572;DHT22;61854;48.510;-2.770;2023-02-02T02:33:07;8.90;82.90
73572;DHT22;61854;48.510;-2.770;2023-02-02T02:35:40;8.90;83.20
73572;DHT22;61854;48.510;-2.770;2023-02-02T02:38:13;8.90;83.30
73572;DHT22;61854;48.510;-2.770;2023-02-02T02:40:52;8.90;83.30
73572;DHT22;61854;48.510;-2.770;2023-02-02T02:43:29;8.90;83.40
73572;DHT22;61854;48.510;-2.770;2023-02-02T02:45:55;8.90;83.40
73572;DHT22;61854;48.510;-2.770;2023-02-02T02:48:21;8.90;83.60
73572;DHT22;61854;48.510;-2.770;2023-02-02T02:50:47;8.90;83.40
73572;DHT22;61854;48.510;-2.770;2023-02-02T02:53:21;8.90;83.70
73572;DHT22;61854;48.510;-2.770;2023-02-02T02:58:43;8.90;83.80
73572;DHT22;61854;48.510;-2.770;2023-02-02T03:01:14;8.90;83.60
73572;DHT22;61854;48.510;-2.770;2023-02-02T03:03:46;8.90;84.60
73572;DHT22;61854;48.510;-2.770;2023-02-02T03:06:37;8.90;83.60
73572;DHT22;61854;48.510;-2.770;2023-02-02T03:09:08;8.90;83.60
73572;DHT22;61854;48.510;-2.770;2023-02-02T03:11:34;8.90;83.60
73572;DHT22;61854;48.510;-2.770;2023-02-02T03:14:00;8.90;83.60
73572;DHT22;61854;48.510;-2.770;2023-02-02T03:16:26;8.90;83.80
73572;DHT22;61854;48.510;-2.770;2023-02-02T03:18:52;8.90;83.60
73572;DHT22;61854;48.510;-2.770;2023-02-02T03:21:17;8.90;83.50
73572;DHT22;61854;48.510;-2.770;2023-02-02T03:23:43;8.90;83.30
73572;DHT22;61854;48.510;-2.770;2023-02-02T03:26:08;8.90;83.20
73572;DHT22;61854;48.510;-2.770;2023-02-02T03:28:34;8.90;83.20
73572;DHT22;61854;48.510;-2.770;2023-02-02T03:31:00;8.90;84.30
73572;DHT22;61854;48.510;-2.770;2023-02-02T03:33:26;8.90;83.30
73572;DHT22;61854;48.510;-2.770;2023-02-02T03:35:51;8.90;83.20
73572;DHT22;61854;48.510;-2.770;2023-02-02T03:38:17;8.90;83.00
73572;DHT22;61854;48.510;-2.770;2023-02-02T03:40:43;8.90;83.00
73572;DHT22;61854;48.510;-2.770;2023-02-02T03:43:08;8.90;82.90
73572;DHT22;61854;48.510;-2.770;2023-02-02T03:45:34;9.00;82.90
73572;DHT22;61854;48.510;-2.770;2023-02-02T03:48:02;9.00;82.90
73572;DHT22;61854;48.510;-2.770;2023-02-02T03:50:28;9.00;82.60
73572;DHT22;61854;48.510;-2.770;2023-02-02T03:52:53;9.00;82.50
73572;DHT22;61854;48.510;-2.770;2023-02-02T03:55:19;8.90;82.40
73572;DHT22;61854;48.510;-2.770;2023-02-02T03:57:45;8.90;82.50
73572;DHT22;61854;48.510;-2.770;2023-02-02T04:00:11;8.90;82.50
73572;DHT22;61854;48.510;-2.770;2023-02-02T04:02:36;9.00;82.50
73572;DHT22;61854;48.510;-2.770;2023-02-02T04:05:04;9.00;81.90
73572;DHT22;61854;48.510;-2.770;2023-02-02T04:07:30;9.00;81.90
73572;DHT22;61854;48.510;-2.770;2023-02-02T04:09:55;9.00;81.90
73572;DHT22;61854;48.510;-2.770;2023-02-02T04:12:21;9.00;82.10
73572;DHT22;61854;48.510;-2.770;2023-02-02T04:14:46;9.00;82.40
73572;DHT22;61854;48.510;-2.770;2023-02-02T04:17:12;9.00;82.40
73572;DHT22;61854;48.510;-2.770;2023-02-02T04:19:37;9.00;82.40
73572;DHT22;61854;48.510;-2.770;2023-02-02T04:22:03;9.10;82.80
73572;DHT22;61854;48.510;-2.770;2023-02-02T04:24:28;9.10;82.50
73572;DHT22;61854;48.510;-2.770;2023-02-02T04:26:54;9.10;82.50
73572;DHT22;61854;48.510;-2.770;2023-02-02T04:29:19;9.10;82.50
73572;DHT22;61854;48.510;-2.770;2023-02-02T04:31:45;9.10;82.60
73572;DHT22;61854;48.510;-2.770;2023-02-02T04:34:10;9.10;82.70
73572;DHT22;61854;48.510;-2.770;2023-02-02T04:36:36;9.00;82.80
73572;DHT22;61854;48.510;-2.770;2023-02-02T04:39:01;9.10;83.00
73572;DHT22;61854;48.510;-2.770;2023-02-02T04:41:27;9.10;83.00
73572;DHT22;61854;48.510;-2.770;2023-02-02T04:43:52;9.10;83.10
73572;DHT22;61854;48.510;-2.770;2023-02-02T04:46:18;9.10;83.20
73572;DHT22;61854;48.510;-2.770;2023-02-02T04:48:43;9.00;83.70
73572;DHT22;61854;48.510;-2.770;2023-02-02T04:51:12;9.00;83.90
73572;DHT22;61854;48.510;-2.770;2023-02-02T04:53:38;9.00;83.90
73572;DHT22;61854;48.510;-2.770;2023-02-02T04:56:05;9.00;84.30
73572;DHT22;61854;48.510;-2.770;2023-02-02T04:58:31;9.00;84.80
73572;DHT22;61854;48.510;-2.770;2023-02-02T05:00:56;9.00;84.90
73572;DHT22;61854;48.510;-2.770;2023-02-02T05:03:22;9.10;84.60
73572;DHT22;61854;48.510;-2.770;2023-02-02T05:05:47;9.10;85.00
73572;DHT22;61854;48.510;-2.770;2023-02-02T05:08:13;9.00;85.10
73572;DHT22;61854;48.510;-2.770;2023-02-02T05:10:39;9.00;85.00
73572;DHT22;61854;48.510;-2.770;2023-02-02T05:13:05;9.00;85.00
73572;DHT22;61854;48.510;-2.770;2023-02-02T05:15:31;9.00;85.10
73572;DHT22;61854;48.510;-2.770;2023-02-02T05:17:56;9.00;85.30
73572;DHT22;61854;48.510;-2.770;2023-02-02T05:20:21;9.00;85.40
73572;DHT22;61854;48.510;-2.770;2023-02-02T05:22:47;9.00;85.50
73572;DHT22;61854;48.510;-2.770;2023-02-02T05:25:14;9.00;85.60
73572;DHT22;61854;48.510;-2.770;2023-02-02T05:27:41;9.00;85.80
73572;DHT22;61854;48.510;-2.770;2023-02-02T05:30:08;9.00;85.70
73572;DHT22;61854;48.510;-2.770;2023-02-02T05:32:33;9.00;85.90
73572;DHT22;61854;48.510;-2.770;2023-02-02T05:34:59;9.00;86.20
73572;DHT22;61854;48.510;-2.770;2023-02-02T05:37:24;9.00;86.40
73572;DHT22;61854;48.510;-2.770;2023-02-02T05:39:50;8.90;86.40
73572;DHT22;61854;48.510;-2.770;2023-02-02T05:42:18;9.00;86.60
73572;DHT22;61854;48.510;-2.770;2023-02-02T05:44:43;9.00;86.50
73572;DHT22;61854;48.510;-2.770;2023-02-02T05:47:09;9.00;86.30
73572;DHT22;61854;48.510;-2.770;2023-02-02T05:49:34;8.90;86.70
73572;DHT22;61854;48.510;-2.770;2023-02-02T05:52:00;8.90;86.40
73572;DHT22;61854;48.510;-2.770;2023-02-02T05:54:25;8.90;86.50
73572;DHT22;61854;48.510;-2.770;2023-02-02T05:56:52;8.90;86.20
73572;DHT22;61854;48.510;-2.770;2023-02-02T05:59:18;9.00;86.20
73572;DHT22;61854;48.510;-2.770;2023-02-02T06:01:44;9.00;86.10
73572;DHT22;61854;48.510;-2.770;2023-02-02T06:04:10;9.00;86.30
73572;DHT22;61854;48.510;-2.770;2023-02-02T06:06:35;8.90;86.20
73572;DHT22;61854;48.510;-2.770;2023-02-02T06:09:03;8.90;86.20
73572;DHT22;61854;48.510;-2.770;2023-02-02T06:11:28;9.00;86.10
73572;DHT22;61854;48.510;-2.770;2023-02-02T06:13:54;8.90;86.40
73572;DHT22;61854;48.510;-2.770;2023-02-02T06:16:19;8.90;86.60
73572;DHT22;61854;48.510;-2.770;2023-02-02T06:18:45;9.00;87.30
73572;DHT22;61854;48.510;-2.770;2023-02-02T06:21:11;9.00;87.50
73572;DHT22;61854;48.510;-2.770;2023-02-02T06:23:37;9.00;89.00
73572;DHT22;61854;48.510;-2.770;2023-02-02T06:26:02;9.00;88.90
73572;DHT22;61854;48.510;-2.770;2023-02-02T06:28:31;9.00;89.10
73572;DHT22;61854;48.510;-2.770;2023-02-02T06:31:01;9.00;88.50
73572;DHT22;61854;48.510;-2.770;2023-02-02T06:33:27;9.00;87.00
73572;DHT22;61854;48.510;-2.770;2023-02-02T06:35:52;9.00;88.00
73572;DHT22;61854;48.510;-2.770;2023-02-02T06:38:22;9.00;86.40
73572;DHT22;61854;48.510;-2.770;2023-02-02T06:40:48;9.00;86.50
73572;DHT22;61854;48.510;-2.770;2023-02-02T06:43:13;9.00;86.30
73572;DHT22;61854;48.510;-2.770;2023-02-02T06:45:40;8.90;86.30
73572;DHT22;61854;48.510;-2.770;2023-02-02T06:48:06;9.00;86.20
73572;DHT22;61854;48.510;-2.770;2023-02-02T06:50:35;9.00;86.30
73572;DHT22;61854;48.510;-2.770;2023-02-02T06:53:01;9.00;86.30
73572;DHT22;61854;48.510;-2.770;2023-02-02T06:55:26;9.00;86.30
73572;DHT22;61854;48.510;-2.770;2023-02-02T06:57:58;9.00;86.10
73572;DHT22;61854;48.510;-2.770;2023-02-02T07:00:24;9.00;86.00
73572;DHT22;61854;48.510;-2.770;2023-02-02T07:02:50;9.00;86.10
73572;DHT22;61854;48.510;-2.770;2023-02-02T07:05:16;9.00;86.00
73572;DHT22;61854;48.510;-2.770;2023-02-02T07:07:43;9.00;86.10
73572;DHT22;61854;48.510;-2.770;2023-02-02T07:10:09;9.00;86.20
73572;DHT22;61854;48.510;-2.770;2023-02-02T07:12:35;9.00;86.10
73572;DHT22;61854;48.510;-2.770;2023-02-02T07:15:00;9.00;86.10
73572;DHT22;61854;48.510;-2.770;2023-02-02T07:17:26;9.00;86.10
73572;DHT22;61854;48.510;-2.770;2023-02-02T07:19:51;9.00;86.00
73572;DHT22;61854;48.510;-2.770;2023-02-02T07:22:17;9.00;86.00
73572;DHT22;61854;48.510;-2.770;2023-02-02T07:24:42;9.00;86.10
73572;DHT22;61854;48.510;-2.770;2023-02-02T07:27:08;9.00;86.10
73572;DHT22;61854;48.510;-2.770;2023-02-02T07:29:33;9.00;86.00
73572;DHT22;61854;48.510;-2.770;2023-02-02T07:31:59;9.00;86.00
73572;DHT22;61854;48.510;-2.770;2023-02-02T07:34:24;9.10;86.10
73572;DHT22;61854;48.510;-2.770;2023-02-02T07:36:53;9.10;85.60
73572;DHT22;61854;48.510;-2.770;2023-02-02T07:39:18;9.10;85.50
73572;DHT22;61854;48.510;-2.770;2023-02-02T07:41:44;9.10;86.00
73572;DHT22;61854;48.510;-2.770;2023-02-02T07:44:11;9.00;85.60
73572;DHT22;61854;48.510;-2.770;2023-02-02T07:46:40;9.10;85.80
73572;DHT22;61854;48.510;-2.770;2023-02-02T07:49:06;9.00;86.00
73572;DHT22;61854;48.510;-2.770;2023-02-02T07:51:32;9.00;86.20
73572;DHT22;61854;48.510;-2.770;2023-02-02T07:53:58;9.00;86.60
73572;DHT22;61854;48.510;-2.770;2023-02-02T07:56:26;9.00;86.60
73572;DHT22;61854;48.510;-2.770;2023-02-02T07:58:53;9.00;86.60
73572;DHT22;61854;48.510;-2.770;2023-02-02T08:01:19;9.10;86.30
73572;DHT22;61854;48.510;-2.770;2023-02-02T08:03:47;9.10;86.10
73572;DHT22;61854;48.510;-2.770;2023-02-02T08:06:14;9.10;86.00
73572;DHT22;61854;48.510;-2.770;2023-02-02T08:08:40;9.10;85.90
73572;DHT22;61854;48.510;-2.770;2023-02-02T08:11:07;9.10;86.30
73572;DHT22;61854;48.510;-2.770;2023-02-02T08:13:32;9.10;86.20
73572;DHT22;61854;48.510;-2.770;2023-02-02T08:15:58;9.10;85.90
73572;DHT22;61854;48.510;-2.770;2023-02-02T08:18:23;9.10;85.80
73572;DHT22;61854;48.510;-2.770;2023-02-02T08:20:49;9.10;85.30
73572;DHT22;61854;48.510;-2.770;2023-02-02T08:23:17;9.10;85.40
73572;DHT22;61854;48.510;-2.770;2023-02-02T08:25:50;9.20;85.30
73572;DHT22;61854;48.510;-2.770;2023-02-02T08:28:16;9.20;85.20
73572;DHT22;61854;48.510;-2.770;2023-02-02T08:30:42;9.20;84.80
73572;DHT22;61854;48.510;-2.770;2023-02-02T08:33:08;9.20;84.80
73572;DHT22;61854;48.510;-2.770;2023-02-02T08:35:33;9.30;84.90
73572;DHT22;61854;48.510;-2.770;2023-02-02T08:37:59;9.30;84.50
73572;DHT22;61854;48.510;-2.770;2023-02-02T08:40:27;9.30;84.80
73572;DHT22;61854;48.510;-2.770;2023-02-02T08:42:53;9.30;84.20
73572;DHT22;61854;48.510;-2.770;2023-02-02T08:45:19;9.30;84.00
73572;DHT22;61854;48.510;-2.770;2023-02-02T08:47:45;9.40;84.20
73572;DHT22;61854;48.510;-2.770;2023-02-02T08:50:11;9.40;84.00
73572;DHT22;61854;48.510;-2.770;2023-02-02T08:52:36;9.40;83.70
73572;DHT22;61854;48.510;-2.770;2023-02-02T08:55:03;9.40;83.60
73572;DHT22;61854;48.510;-2.770;2023-02-02T08:57:28;9.40;83.30
73572;DHT22;61854;48.510;-2.770;2023-02-02T08:59:57;9.50;83.40
73572;DHT22;61854;48.510;-2.770;2023-02-02T09:02:22;9.50;83.00
73572;DHT22;61854;48.510;-2.770;2023-02-02T09:04:48;9.50;83.20
73572;DHT22;61854;48.510;-2.770;2023-02-02T09:07:13;9.50;83.00
73572;DHT22;61854;48.510;-2.770;2023-02-02T09:09:39;9.60;82.90
73572;DHT22;61854;48.510;-2.770;2023-02-02T09:12:04;9.50;82.70
73572;DHT22;61854;48.510;-2.770;2023-02-02T09:14:30;9.60;82.70
73572;DHT22;61854;48.510;-2.770;2023-02-02T09:16:56;9.60;82.60
73572;DHT22;61854;48.510;-2.770;2023-02-02T09:19:21;9.60;82.50
73572;DHT22;61854;48.510;-2.770;2023-02-02T09:21:50;9.70;82.40
73572;DHT22;61854;48.510;-2.770;2023-02-02T09:24:16;9.70;81.90
73572;DHT22;61854;48.510;-2.770;2023-02-02T09:26:42;9.80;81.90
73572;DHT22;61854;48.510;-2.770;2023-02-02T09:29:10;9.80;81.60
73572;DHT22;61854;48.510;-2.770;2023-02-02T09:31:36;9.80;81.30
73572;DHT22;61854;48.510;-2.770;2023-02-02T09:34:05;9.90;81.30
73572;DHT22;61854;48.510;-2.770;2023-02-02T09:36:31;9.90;81.40
73572;DHT22;61854;48.510;-2.770;2023-02-02T09:38:57;9.90;81.30
73572;DHT22;61854;48.510;-2.770;2023-02-02T09:49:36;10.00;81.10
73572;DHT22;61854;48.510;-2.770;2023-02-02T09:52:50;10.00;81.00
73572;DHT22;61854;48.510;-2.770;2023-02-02T09:54:49;10.00;81.20
73572;DHT22;61854;48.510;-2.770;2023-02-02T09:57:23;10.10;81.00
73572;DHT22;61854;48.510;-2.770;2023-02-02T09:59:50;10.10;80.60
73572;DHT22;61854;48.510;-2.770;2023-02-02T10:02:19;10.10;80.60
73572;DHT22;61854;48.510;-2.770;2023-02-02T10:04:47;10.20;80.40
73572;DHT22;61854;48.510;-2.770;2023-02-02T10:07:22;10.20;80.40
73572;DHT22;61854;48.510;-2.770;2023-02-02T10:09:58;10.20;80.40
73572;DHT22;61854;48.510;-2.770;2023-02-02T10:12:29;10.30;79.80
73572;DHT22;61854;48.510;-2.770;2023-02-02T10:17:48;10.40;80.00
73572;DHT22;61854;48.510;-2.770;2023-02-02T10:22:47;10.40;79.70
73572;DHT22;61854;48.510;-2.770;2023-02-02T10:25:13;10.50;79.70
73572;DHT22;61854;48.510;-2.770;2023-02-02T10:27:39;10.50;79.30
73572;DHT22;61854;48.510;-2.770;2023-02-02T10:30:24;10.50;79.20
73572;DHT22;61854;48.510;-2.770;2023-02-02T10:32:57;10.50;79.00
73572;DHT22;61854;48.510;-2.770;2023-02-02T10:35:37;10.50;79.00
73572;DHT22;61854;48.510;-2.770;2023-02-02T10:38:09;10.50;79.20
73572;DHT22;61854;48.510;-2.770;2023-02-02T10:43:31;10.60;79.20
73572;DHT22;61854;48.510;-2.770;2023-02-02T10:46:21;10.70;79.20
73572;DHT22;61854;48.510;-2.770;2023-02-02T10:48:48;10.70;79.40
73572;DHT22;61854;48.510;-2.770;2023-02-02T10:53:42;10.80;78.80
73572;DHT22;61854;48.510;-2.770;2023-02-02T10:56:11;10.80;79.00
73572;DHT22;61854;48.510;-2.770;2023-02-02T10:58:39;10.90;78.90
73572;DHT22;61854;48.510;-2.770;2023-02-02T11:01:08;10.90;78.80
73572;DHT22;61854;48.510;-2.770;2023-02-02T11:03:35;11.00;78.30
73572;DHT22;61854;48.510;-2.770;2023-02-02T11:06:02;11.00;78.80
73572;DHT22;61854;48.510;-2.770;2023-02-02T11:08:48;11.10;78.40
73572;DHT22;61854;48.510;-2.770;2023-02-02T11:11:26;11.20;77.10
73572;DHT22;61854;48.510;-2.770;2023-02-02T11:13:56;11.20;76.70
73572;DHT22;61854;48.510;-2.770;2023-02-02T11:16:24;11.10;77.40
73572;DHT22;61854;48.510;-2.770;2023-02-02T11:18:51;11.20;76.90
73572;DHT22;61854;48.510;-2.770;2023-02-02T11:23:56;11.30;76.80
73572;DHT22;61854;48.510;-2.770;2023-02-02T11:26:23;11.50;76.50
73572;DHT22;61854;48.510;-2.770;2023-02-02T11:28:49;11.50;76.30
73572;DHT22;61854;48.510;-2.770;2023-02-02T11:31:29;11.50;76.30
73572;DHT22;61854;48.510;-2.770;2023-02-02T11:34:00;11.50;76.70
73572;DHT22;61854;48.510;-2.770;2023-02-02T11:36:31;11.60;76.10
73572;DHT22;61854;48.510;-2.770;2023-02-02T11:39:13;11.70;74.90
73572;DHT22;61854;48.510;-2.770;2023-02-02T11:41:39;11.80;74.80
73572;DHT22;61854;48.510;-2.770;2023-02-02T11:44:09;11.90;74.30
73572;DHT22;61854;48.510;-2.770;2023-02-02T11:46:39;11.90;73.70
73572;DHT22;61854;48.510;-2.770;2023-02-02T11:49:13;11.90;73.90
73572;DHT22;61854;48.510;-2.770;2023-02-02T11:51:40;11.90;74.00
73572;DHT22;61854;48.510;-2.770;2023-02-02T11:54:13;11.90;74.20
73572;DHT22;61854;48.510;-2.770;2023-02-02T11:56:39;11.90;74.20
73572;DHT22;61854;48.510;-2.770;2023-02-02T11:59:08;12.00;73.50
73572;DHT22;61854;48.510;-2.770;2023-02-02T12:01:50;12.00;73.80
73572;DHT22;61854;48.510;-2.770;2023-02-02T12:04:34;12.00;73.60
73572;DHT22;61854;48.510;-2.770;2023-02-02T12:07:00;12.00;73.90
73572;DHT22;61854;48.510;-2.770;2023-02-02T12:09:25;12.00;73.60
73572;DHT22;61854;48.510;-2.770;2023-02-02T12:12:09;11.90;73.30
73572;DHT22;61854;48.510;-2.770;2023-02-02T12:14:43;11.80;73.20
73572;DHT22;61854;48.510;-2.770;2023-02-02T12:25:45;11.40;74.80
73572;DHT22;61854;48.510;-2.770;2023-02-02T12:36:28;11.30;76.50
73572;DHT22;61854;48.510;-2.770;2023-02-02T12:41:52;11.50;76.20
73572;DHT22;61854;48.510;-2.770;2023-02-02T12:44:22;11.60;75.90
73572;DHT22;61854;48.510;-2.770;2023-02-02T12:54:57;12.00;72.40
73572;DHT22;61854;48.510;-2.770;2023-02-02T13:00:22;11.80;72.70
73572;DHT22;61854;48.510;-2.770;2023-02-02T13:02:59;11.70;72.80
73572;DHT22;61854;48.510;-2.770;2023-02-02T13:05:45;11.60;73.80
73572;DHT22;61854;48.510;-2.770;2023-02-02T13:10:45;11.70;74.50
73572;DHT22;61854;48.510;-2.770;2023-02-02T13:15:45;12.00;73.20
73572;DHT22;61854;48.510;-2.770;2023-02-02T13:20:47;12.30;71.50
73572;DHT22;61854;48.510;-2.770;2023-02-02T13:23:23;12.40;71.60
73572;DHT22;61854;48.510;-2.770;2023-02-02T13:25:56;12.40;70.70
73572;DHT22;61854;48.510;-2.770;2023-02-02T13:28:30;12.50;70.20
73572;DHT22;61854;48.510;-2.770;2023-02-02T13:30:57;12.50;69.90
73572;DHT22;61854;48.510;-2.770;2023-02-02T13:33:27;12.60;69.00
73572;DHT22;61854;48.510;-2.770;2023-02-02T13:35:54;12.70;68.00
73572;DHT22;61854;48.510;-2.770;2023-02-02T13:38:23;12.60;67.90
73572;DHT22;61854;48.510;-2.770;2023-02-02T13:40:49;12.50;68.80
73572;DHT22;61854;48.510;-2.770;2023-02-02T13:45:56;12.40;70.20
73572;DHT22;61854;48.510;-2.770;2023-02-02T13:48:28;12.30;70.20
73572;DHT22;61854;48.510;-2.770;2023-02-02T13:58:37;11.90;71.50
73572;DHT22;61854;48.510;-2.770;2023-02-02T14:01:08;11.80;72.10
73572;DHT22;61854;48.510;-2.770;2023-02-02T14:06:04;11.60;73.60
73572;DHT22;61854;48.510;-2.770;2023-02-02T14:08:30;11.60;73.90
73572;DHT22;61854;48.510;-2.770;2023-02-02T14:10:56;11.60;73.40
73572;DHT22;61854;48.510;-2.770;2023-02-02T14:13:42;11.60;73.40
73572;DHT22;61854;48.510;-2.770;2023-02-02T14:19:00;11.60;73.60
73572;DHT22;61854;48.510;-2.770;2023-02-02T14:26:58;11.50;74.40
73572;DHT22;61854;48.510;-2.770;2023-02-02T14:32:00;11.50;75.70
73572;DHT22;61854;48.510;-2.770;2023-02-02T14:47:46;11.60;70.80
73572;DHT22;61854;48.510;-2.770;2023-02-02T14:50:17;11.60;71.10
73572;DHT22;61854;48.510;-2.770;2023-02-02T14:52:43;11.60;71.70
73572;DHT22;61854;48.510;-2.770;2023-02-02T14:55:16;11.50;72.40
73572;DHT22;61854;48.510;-2.770;2023-02-02T14:57:42;11.50;73.00
73572;DHT22;61854;48.510;-2.770;2023-02-02T15:00:20;11.50;73.70
73572;DHT22;61854;48.510;-2.770;2023-02-02T15:02:47;11.40;73.50
73572;DHT22;61854;48.510;-2.770;2023-02-02T15:13:14;11.40;71.00
73572;DHT22;61854;48.510;-2.770;2023-02-02T15:15:41;11.40;69.50
73572;DHT22;61854;48.510;-2.770;2023-02-02T15:18:21;11.30;69.40
73572;DHT22;61854;48.510;-2.770;2023-02-02T15:20:49;11.30;68.80
73572;DHT22;61854;48.510;-2.770;2023-02-02T15:30:59;11.10;69.40
73572;DHT22;61854;48.510;-2.770;2023-02-02T15:33:30;11.10;70.60
73572;DHT22;61854;48.510;-2.770;2023-02-02T15:36:02;11.10;70.10
73572;DHT22;61854;48.510;-2.770;2023-02-02T15:38:31;11.10;70.80
73572;DHT22;61854;48.510;-2.770;2023-02-02T15:41:01;11.10;70.30
73572;DHT22;61854;48.510;-2.770;2023-02-02T15:43:27;11.10;68.90
73572;DHT22;61854;48.510;-2.770;2023-02-02T15:45:54;11.10;68.70
73572;DHT22;61854;48.510;-2.770;2023-02-02T15:50:46;11.10;69.20
73572;DHT22;61854;48.510;-2.770;2023-02-02T15:53:17;11.10;69.60
73572;DHT22;61854;48.510;-2.770;2023-02-02T15:55:42;11.10;69.10
73572;DHT22;61854;48.510;-2.770;2023-02-02T15:58:25;11.10;68.80
73572;DHT22;61854;48.510;-2.770;2023-02-02T16:00:59;11.10;69.00
73572;DHT22;61854;48.510;-2.770;2023-02-02T16:03:28;11.10;69.40
73572;DHT22;61854;48.510;-2.770;2023-02-02T16:05:54;11.10;70.00
73572;DHT22;61854;48.510;-2.770;2023-02-02T16:08:24;11.10;69.90
73572;DHT22;61854;48.510;-2.770;2023-02-02T16:11:00;11.00;70.50
73572;DHT22;61854;48.510;-2.770;2023-02-02T16:13:26;11.00;70.50
73572;DHT22;61854;48.510;-2.770;2023-02-02T16:15:53;11.00;71.20
73572;DHT22;61854;48.510;-2.770;2023-02-02T16:18:19;11.00;71.10
73572;DHT22;61854;48.510;-2.770;2023-02-02T16:20:44;11.00;71.30
73572;DHT22;61854;48.510;-2.770;2023-02-02T16:23:12;11.00;71.60
73572;DHT22;61854;48.510;-2.770;2023-02-02T16:25:47;11.00;71.80
73572;DHT22;61854;48.510;-2.770;2023-02-02T16:28:13;10.90;72.10
73572;DHT22;61854;48.510;-2.770;2023-02-02T16:30:40;10.90;72.40
73572;DHT22;61854;48.510;-2.770;2023-02-02T16:33:29;10.90;72.80
73572;DHT22;61854;48.510;-2.770;2023-02-02T16:35:57;10.90;73.00
73572;DHT22;61854;48.510;-2.770;2023-02-02T16:40:48;10.80;73.30
73572;DHT22;61854;48.510;-2.770;2023-02-02T16:43:17;10.80;73.90
73572;DHT22;61854;48.510;-2.770;2023-02-02T16:45:47;10.80;74.00
73572;DHT22;61854;48.510;-2.770;2023-02-02T16:48:19;10.80;74.20
73572;DHT22;61854;48.510;-2.770;2023-02-02T16:50:45;10.70;74.50
73572;DHT22;61854;48.510;-2.770;2023-02-02T16:53:19;10.70;74.70
73572;DHT22;61854;48.510;-2.770;2023-02-02T16:55:46;10.70;75.10
73572;DHT22;61854;48.510;-2.770;2023-02-02T16:58:14;10.70;74.90
73572;DHT22;61854;48.510;-2.770;2023-02-02T17:00:39;10.70;75.40
73572;DHT22;61854;48.510;-2.770;2023-02-02T17:03:14;10.70;75.70
73572;DHT22;61854;48.510;-2.770;2023-02-02T17:08:09;10.60;76.40
73572;DHT22;61854;48.510;-2.770;2023-02-02T17:13:01;10.60;77.50
73572;DHT22;61854;48.510;-2.770;2023-02-02T17:15:28;10.50;77.60
73572;DHT22;61854;48.510;-2.770;2023-02-02T17:17:55;10.50;77.70
73572;DHT22;61854;48.510;-2.770;2023-02-02T17:20:21;10.50;78.00
73572;DHT22;61854;48.510;-2.770;2023-02-02T17:22:50;10.50;78.30
73572;DHT22;61854;48.510;-2.770;2023-02-02T17:25:17;10.40;78.20
73572;DHT22;61854;48.510;-2.770;2023-02-02T17:27:43;10.40;78.30
73572;DHT22;61854;48.510;-2.770;2023-02-02T17:30:13;10.40;77.90
73572;DHT22;61854;48.510;-2.770;2023-02-02T17:32:39;10.40;77.20
73572;DHT22;61854;48.510;-2.770;2023-02-02T17:35:18;10.40;76.60
73572;DHT22;61854;48.510;-2.770;2023-02-02T17:37:44;10.40;76.10
73572;DHT22;61854;48.510;-2.770;2023-02-02T17:40:13;10.40;75.80
73572;DHT22;61854;48.510;-2.770;2023-02-02T17:42:38;10.40;75.90
73572;DHT22;61854;48.510;-2.770;2023-02-02T17:45:09;10.40;75.80
73572;DHT22;61854;48.510;-2.770;2023-02-02T17:47:34;10.40;75.80
73572;DHT22;61854;48.510;-2.770;2023-02-02T17:50:01;10.30;75.90